Time;durP1;ratioP1;P1;durP2;ratioP2;P2;SDS_P1;SDS_P2;PMS_P1;PMS_P2;Temp;Humidity;BMP_temperature;BMP_pressure;BME280_temperature;BME280_humidity;BME280_pressure;Samples;Min_cycle;Max_cycle;Signal;HPM_P1;HPM_P2
2022/03/26 00:02:04;;;;;;;41.58;23.33;;;8.80;1.00;;;;;;7379641;19;20113;-61
2022/03/26 00:04:34;;;;;;;40.33;23.33;;;8.80;1.00;;;;;;7362221;19;20101;-62
2022/03/26 00:07:04;;;;;;;44.78;23.50;;;8.70;1.00;;;;;;7361241;19;20006;-61
2022/03/26 00:09:34;;;;;;;45.40;23.98;;;8.60;1.00;;;;;;7364689;19;20027;-62
2022/03/26 00:12:09;;;;;;;42.78;23.52;;;8.70;1.00;;;;;;7358628;19;20565;-62
2022/03/26 00:14:39;;;;;;;44.17;24.35;;;8.60;1.00;;;;;;7364198;19;20007;-63
2022/03/26 00:17:09;;;;;;;41.60;24.38;;;8.70;1.00;;;;;;7383296;19;20094;-62
2022/03/26 00:19:39;;;;;;;49.33;24.30;;;8.50;1.00;;;;;;7363826;19;20035;-62
2022/03/26 00:22:11;;;;;;;44.00;25.27;;;8.30;1.00;;;;;;7358516;19;20029;-62
2022/03/26 00:24:43;;;;;;;49.97;25.17;;;8.30;1.00;;;;;;7361389;19;20015;-62
2022/03/26 00:27:16;;;;;;;42.83;23.38;;;8.50;1.00;;;;;;7360603;19;20034;-62
2022/03/26 00:29:47;;;;;;;45.47;23.88;;;8.70;1.00;;;;;;7361606;19;20010;-62
2022/03/26 00:32:18;;;;;;;43.05;23.35;;;8.70;1.00;;;;;;7380093;19;20014;-61
2022/03/26 00:34:48;;;;;;;45.47;23.73;;;8.80;1.00;;;;;;7361825;19;20492;-62
2022/03/26 00:37:18;;;;;;;44.28;22.55;;;8.70;1.00;;;;;;7360204;19;20018;-62
2022/03/26 00:39:48;;;;;;;40.75;22.35;;;8.70;1.00;;;;;;7363278;19;20011;-62
2022/03/26 00:42:21;;;;;;;40.13;23.00;;;8.60;1.00;;;;;;7363149;19;20021;-62
2022/03/26 00:44:51;;;;;;;38.97;22.65;;;8.50;1.00;;;;;;7369314;19;20081;-61
2022/03/26 00:47:21;;;;;;;48.78;24.88;;;8.40;1.00;;;;;;7367968;19;20071;-62
2022/03/26 00:49:51;;;;;;;49.40;26.23;;;8.40;1.00;;;;;;7390101;19;20018;-62
2022/03/26 00:52:21;;;;;;;47.45;26.17;;;8.20;1.00;;;;;;7364282;19;20007;-62
2022/03/26 00:54:51;;;;;;;46.20;24.90;;;8.00;1.00;;;;;;7369224;19;20082;-62
2022/03/26 00:57:24;;;;;;;48.80;27.15;;;7.90;1.00;;;;;;7367807;19;20478;-62
2022/03/26 00:59:53;;;;;;;48.78;25.40;;;7.70;1.00;;;;;;7370243;19;20010;-62
2022/03/26 01:02:24;;;;;;;50.50;26.73;;;7.60;1.00;;;;;;7365242;19;20020;-62
2022/03/26 01:04:53;;;;;;;45.55;25.88;;;7.50;1.00;;;;;;7389502;19;20078;-61
2022/03/26 01:07:25;;;;;;;47.08;25.90;;;7.50;1.00;;;;;;7367113;19;20013;-61
2022/03/26 01:09:55;;;;;;;45.28;25.95;;;7.40;1.00;;;;;;7371031;19;20010;-61
2022/03/26 01:12:28;;;;;;;45.00;25.05;;;7.30;1.00;;;;;;7363906;19;20090;-62
2022/03/26 01:14:58;;;;;;;50.25;26.98;;;7.30;1.00;;;;;;7368134;19;20098;-61
2022/03/26 01:17:28;;;;;;;53.20;26.00;;;7.20;1.00;;;;;;7367668;19;20010;-61
2022/03/26 01:19:59;;;;;;;47.30;25.60;;;7.20;1.00;;;;;;7394690;19;20066;-61
2022/03/26 01:22:29;;;;;;;46.78;25.33;;;7.30;1.00;;;;;;7384829;19;20018;-62
2022/03/26 01:24:59;;;;;;;41.95;24.27;;;7.40;1.00;;;;;;7387738;19;20021;-62
2022/03/26 01:27:32;;;;;;;45.92;23.95;;;7.50;1.00;;;;;;7361912;19;20098;-60
2022/03/26 01:30:01;;;;;;;45.30;24.15;;;7.60;1.00;;;;;;7368758;19;20101;-62
2022/03/26 01:32:31;;;;;;;46.50;23.48;;;7.40;1.00;;;;;;7364542;19;20010;-59
2022/03/26 01:35:01;;;;;;;43.70;24.50;;;7.20;1.00;;;;;;7366431;19;20014;-62
2022/03/26 01:37:31;;;;;;;42.85;24.55;;;7.20;1.00;;;;;;7388513;19;20035;-61
2022/03/26 01:40:01;;;;;;;47.00;24.80;;;7.40;1.00;;;;;;7368875;19;20477;-60
2022/03/26 01:42:34;;;;;;;50.15;26.15;;;7.30;1.00;;;;;;7362510;19;20025;-61
2022/03/26 01:45:04;;;;;;;45.92;25.42;;;7.20;1.00;;;;;;7367693;19;20070;-61
2022/03/26 01:47:34;;;;;;;42.63;24.88;;;7.10;1.00;;;;;;7366247;19;20015;-61
2022/03/26 01:50:04;;;;;;;43.95;25.25;;;6.90;1.00;;;;;;7368229;19;20024;-61
2022/03/26 01:52:33;;;;;;;45.60;26.35;;;6.90;1.00;;;;;;7381044;19;20018;-62
2022/03/26 01:55:04;;;;;;;46.30;26.75;;;6.80;1.00;;;;;;7387242;19;20011;-61
2022/03/26 01:57:36;;;;;;;45.55;26.00;;;6.80;1.00;;;;;;7364659;19;20037;-61
2022/03/26 02:00:08;;;;;;;52.70;26.33;;;6.70;1.00;;;;;;7367749;19;20035;-61
2022/03/26 02:02:43;;;;;;;52.20;27.38;;;6.80;1.00;;;;;;7363135;19;20025;-61
2022/03/26 02:05:13;;;;;;;47.55;27.45;;;6.90;1.00;;;;;;7365958;19;20517;-61
2022/03/26 02:07:46;;;;;;;50.08;26.40;;;6.80;1.00;;;;;;7365697;19;20773;-61
2022/03/26 02:10:17;;;;;;;44.00;25.60;;;6.80;1.00;;;;;;7389184;19;20085;-61
2022/03/26 02:12:50;;;;;;;50.03;27.08;;;6.80;1.00;;;;;;7363118;19;20526;-61
2022/03/26 02:15:20;;;;;;;46.05;26.42;;;6.70;1.00;;;;;;7364946;19;20089;-61
2022/03/26 02:17:50;;;;;;;46.13;26.02;;;6.50;1.00;;;;;;7364687;19;20015;-61
2022/03/26 02:20:23;;;;;;;51.58;27.30;;;6.50;1.00;;;;;;7367724;19;20015;-61
2022/03/26 02:22:53;;;;;;;47.00;27.27;;;6.50;1.00;;;;;;7362564;19;20086;-61
2022/03/26 02:25:23;;;;;;;48.08;26.05;;;6.40;1.00;;;;;;7386771;19;20028;-61
2022/03/26 02:27:53;;;;;;;45.83;24.92;;;6.50;1.00;;;;;;7364707;19;20062;-61
2022/03/26 02:30:23;;;;;;;46.22;25.65;;;6.50;1.00;;;;;;7365051;19;20085;-61
2022/03/26 02:32:53;;;;;;;45.40;26.60;;;6.40;1.00;;;;;;7362277;19;20025;-61
2022/03/26 02:35:26;;;;;;;47.85;27.10;;;6.40;1.00;;;;;;7364969;19;20073;-61
2022/03/26 02:37:56;;;;;;;50.85;27.55;;;6.30;1.00;;;;;;7365037;19;20486;-61
2022/03/26 02:40:25;;;;;;;57.72;30.08;;;6.20;1.00;;;;;;7388673;19;20070;-61
2022/03/26 02:42:55;;;;;;;53.88;27.92;;;6.40;1.00;;;;;;7361245;19;20044;-61
2022/03/26 02:45:25;;;;;;;52.13;27.42;;;6.30;1.00;;;;;;7365314;19;20022;-61
2022/03/26 02:47:56;;;;;;;49.25;27.80;;;6.20;1.00;;;;;;7364066;19;20015;-61
2022/03/26 02:50:28;;;;;;;47.65;26.70;;;6.10;1.00;;;;;;7366810;19;20015;-61
2022/03/26 02:52:58;;;;;;;49.45;28.45;;;6.00;1.00;;;;;;7361723;19;20064;-61
2022/03/26 02:55:28;;;;;;;48.28;28.55;;;6.00;1.00;;;;;;7386021;19;20020;-61
2022/03/26 02:57:58;;;;;;;47.47;27.52;;;6.00;1.00;;;;;;7364214;19;20017;-61
2022/03/26 03:00:28;;;;;;;50.13;27.85;;;5.90;1.00;;;;;;7365717;19;20113;-61
2022/03/26 03:02:58;;;;;;;48.95;26.77;;;5.90;1.00;;;;;;7362001;19;20011;-61
2022/03/26 03:05:31;;;;;;;52.10;25.70;;;6.00;1.00;;;;;;7362849;19;20014;-61
2022/03/26 03:08:01;;;;;;;42.83;24.83;;;6.00;1.00;;;;;;7364181;19;20019;-61
2022/03/26 03:10:32;;;;;;;52.75;26.77;;;5.90;1.00;;;;;;7387708;19;20530;-60
2022/03/26 03:13:02;;;;;;;63.15;28.00;;;6.00;1.00;;;;;;7361158;19;20010;-62
2022/03/26 03:15:32;;;;;;;46.22;24.95;;;5.90;1.00;;;;;;7363819;19;20007;-61
2022/03/26 03:18:02;;;;;;;47.25;27.20;;;5.90;1.00;;;;;;7362811;19;20086;-61
2022/03/26 03:20:35;;;;;;;48.20;26.80;;;5.90;1.00;;;;;;7365762;19;20089;-61
2022/03/26 03:23:05;;;;;;;49.15;26.63;;;5.90;1.00;;;;;;7361666;19;20086;-60
2022/03/26 03:25:35;;;;;;;49.83;25.65;;;5.90;1.00;;;;;;7365831;19;20015;-61
2022/03/26 03:28:05;;;;;;;47.78;26.83;;;6.00;1.00;;;;;;7382174;19;20021;-61
2022/03/26 03:30:35;;;;;;;48.90;25.20;;;5.90;1.00;;;;;;7365040;19;20090;-61
2022/03/26 03:33:05;;;;;;;47.35;26.35;;;6.00;1.00;;;;;;7359848;19;20007;-61
2022/03/26 03:35:37;;;;;;;46.15;26.08;;;6.00;1.00;;;;;;7362636;19;20028;-61
2022/03/26 03:38:07;;;;;;;48.00;25.58;;;5.90;1.00;;;;;;7364056;19;20093;-61
2022/03/26 03:40:37;;;;;;;44.40;24.65;;;5.70;1.00;;;;;;7364466;19;20022;-62
2022/03/26 03:43:07;;;;;;;46.60;24.58;;;5.70;1.00;;;;;;7381949;19;20016;-62
2022/03/26 03:45:37;;;;;;;45.25;24.20;;;5.60;1.00;;;;;;7363462;19;20014;-62
2022/03/26 03:48:07;;;;;;;40.28;24.27;;;5.60;1.00;;;;;;7363370;19;20007;-62
2022/03/26 03:50:40;;;;;;;46.80;25.27;;;5.60;1.00;;;;;;7365692;19;20073;-61
2022/03/26 03:53:10;;;;;;;47.42;24.58;;;5.50;1.00;;;;;;7359716;19;20014;-61
2022/03/26 03:55:40;;;;;;;46.78;25.25;;;5.40;1.00;;;;;;7362054;19;20085;-62
2022/03/26 03:58:10;;;;;;;48.45;25.50;;;5.50;1.00;;;;;;7385512;19;20010;-61
2022/03/26 04:00:39;;;;;;;45.42;25.88;;;5.40;1.00;;;;;;7364072;19;20053;-61
2022/03/26 04:03:09;;;;;;;40.85;24.42;;;5.40;1.00;;;;;;7359694;19;20382;-61
2022/03/26 04:05:43;;;;;;;53.80;25.08;;;5.30;1.00;;;;;;7363387;19;20047;-61
2022/03/26 04:08:12;;;;;;;43.03;24.75;;;5.30;1.00;;;;;;7362755;19;20640;-61
2022/03/26 04:10:42;;;;;;;45.17;25.27;;;5.30;1.00;;;;;;7363816;19;20078;-61
2022/03/26 04:13:12;;;;;;;42.13;24.63;;;5.20;1.00;;;;;;7382239;19;20031;-62
2022/03/26 04:15:42;;;;;;;50.05;27.67;;;5.10;1.00;;;;;;7362357;19;20014;-61
2022/03/26 04:18:13;;;;;;;45.53;25.98;;;5.10;1.00;;;;;;7362959;19;20480;-61
2022/03/26 04:20:46;;;;;;;45.42;24.70;;;5.10;1.00;;;;;;7364269;19;20011;-61
2022/03/26 04:23:16;;;;;;;45.45;26.27;;;5.00;1.00;;;;;;7357698;19;20010;-61
2022/03/26 04:25:46;;;;;;;46.95;26.50;;;5.10;1.00;;;;;;7358814;19;20015;-61
2022/03/26 04:28:15;;;;;;;46.40;25.20;;;5.00;1.00;;;;;;7384955;19;20741;-61
2022/03/26 04:30:46;;;;;;;46.83;25.58;;;4.90;1.00;;;;;;7363157;19;20023;-61
2022/03/26 04:33:16;;;;;;;44.97;25.92;;;5.00;1.00;;;;;;7358009;19;20420;-62
2022/03/26 04:35:49;;;;;;;45.03;25.60;;;5.00;1.00;;;;;;7361284;19;20010;-60
2022/03/26 04:38:19;;;;;;;43.10;25.85;;;4.90;1.00;;;;;;7361203;19;20025;-61
2022/03/26 04:40:50;;;;;;;56.15;26.55;;;4.80;1.00;;;;;;7363306;19;20006;-62
2022/03/26 04:43:23;;;;;;;47.55;26.48;;;4.70;1.00;;;;;;7380311;19;20106;-61
2022/03/26 04:45:53;;;;;;;45.70;25.30;;;4.70;1.00;;;;;;7359312;19;20031;-61
2022/03/26 04:48:23;;;;;;;46.83;26.02;;;4.70;1.00;;;;;;7362968;19;20044;-61
2022/03/26 04:50:55;;;;;;;48.63;26.88;;;4.80;1.00;;;;;;7364433;19;20653;-62
2022/03/26 04:53:25;;;;;;;45.75;26.05;;;4.70;1.00;;;;;;7357182;19;20010;-61
2022/03/26 04:55:55;;;;;;;40.58;25.45;;;4.70;1.00;;;;;;7360969;19;20506;-61
2022/03/26 04:58:25;;;;;;;44.55;25.75;;;4.70;1.00;;;;;;7382069;19;20010;-61
2022/03/26 05:00:55;;;;;;;44.78;24.67;;;4.70;1.00;;;;;;7362697;19;20094;-61
2022/03/26 05:03:25;;;;;;;43.45;26.52;;;4.70;1.00;;;;;;7358174;19;20022;-62
2022/03/26 05:05:57;;;;;;;46.92;26.25;;;4.60;1.00;;;;;;7359777;19;20019;-62
2022/03/26 05:08:27;;;;;;;48.78;26.35;;;4.70;1.00;;;;;;7361788;19;20077;-61
2022/03/26 05:10:57;;;;;;;48.13;26.55;;;4.60;1.00;;;;;;7362850;19;20102;-61
2022/03/26 05:13:27;;;;;;;44.78;27.00;;;4.50;1.00;;;;;;7380258;19;20018;-61
2022/03/26 05:15:57;;;;;;;47.67;26.52;;;4.50;1.00;;;;;;7359613;19;20013;-63
2022/03/26 05:18:28;;;;;;;44.25;25.75;;;4.40;1.00;;;;;;7361559;19;20019;-61
2022/03/26 05:21:01;;;;;;;44.38;25.98;;;4.60;1.00;;;;;;7362004;19;20086;-62
2022/03/26 05:23:31;;;;;;;46.38;26.10;;;4.70;1.00;;;;;;7356850;19;20035;-61
2022/03/26 05:26:00;;;;;;;48.22;25.73;;;4.70;1.00;;;;;;7360323;19;20431;-61
2022/03/26 05:28:31;;;;;;;45.85;25.85;;;4.70;1.00;;;;;;7389465;19;20015;-61
2022/03/26 05:31:01;;;;;;;47.90;26.23;;;4.70;1.00;;;;;;7369396;19;20503;-61
2022/03/26 05:33:31;;;;;;;48.78;25.92;;;4.80;1.00;;;;;;7363860;19;20510;-61
2022/03/26 05:36:04;;;;;;;45.83;26.13;;;4.80;1.00;;;;;;7366053;19;20418;-61
2022/03/26 05:38:34;;;;;;;46.30;24.97;;;4.80;1.00;;;;;;7367433;19;20006;-62
2022/03/26 05:41:04;;;;;;;47.42;26.20;;;4.90;1.00;;;;;;7368429;19;20541;-62
2022/03/26 05:43:34;;;;;;;45.72;25.85;;;4.90;1.00;;;;;;7377808;19;20917;-63
2022/03/26 05:46:04;;;;;;;50.08;26.13;;;4.90;1.00;;;;;;7387608;19;20385;-62
2022/03/26 05:48:34;;;;;;;47.00;27.13;;;5.00;1.00;;;;;;7368334;19;20015;-62
2022/03/26 05:51:07;;;;;;;43.78;25.48;;;5.00;1.00;;;;;;7367988;19;20014;-62
2022/03/26 05:53:37;;;;;;;42.75;26.80;;;5.00;1.00;;;;;;7362030;19;20011;-62
2022/03/26 05:56:07;;;;;;;42.80;24.88;;;5.20;1.00;;;;;;7365576;19;20086;-62
2022/03/26 05:58:37;;;;;;;46.88;25.85;;;5.30;1.00;;;;;;7366674;19;20362;-61
2022/03/26 06:01:07;;;;;;;44.15;25.58;;;5.40;1.00;;;;;;7389403;19;20016;-61
2022/03/26 06:03:38;;;;;;;42.70;23.98;;;5.50;1.00;;;;;;7363082;19;20086;-61
2022/03/26 06:06:10;;;;;;;42.15;24.23;;;5.60;1.00;;;;;;7364597;19;20018;-62
2022/03/26 06:08:40;;;;;;;46.65;25.65;;;5.80;1.00;;;;;;7368769;19;20010;-62
2022/03/26 06:11:10;;;;;;;49.25;25.60;;;5.80;1.00;;;;;;7367736;19;20022;-61
2022/03/26 06:13:40;;;;;;;47.90;24.33;;;5.90;1.00;;;;;;7363589;19;20469;-62
2022/03/26 06:16:10;;;;;;;47.92;24.88;;;5.90;1.00;;;;;;7385487;19;20077;-61
2022/03/26 06:18:41;;;;;;;46.53;24.83;;;6.00;1.00;;;;;;7365072;19;20036;-61
2022/03/26 06:21:14;;;;;;;44.65;24.90;;;5.90;1.00;;;;;;7367654;19;20014;-62
2022/03/26 06:23:43;;;;;;;43.35;23.40;;;6.00;1.00;;;;;;7361110;19;20021;-62
2022/03/26 06:26:13;;;;;;;43.28;23.85;;;6.10;1.00;;;;;;7365744;19;20225;-61
2022/03/26 06:28:43;;;;;;;40.83;24.13;;;6.20;1.00;;;;;;7367995;19;20013;-62
2022/03/26 06:31:15;;;;;;;40.97;23.90;;;6.20;1.00;;;;;;7387663;19;20387;-61
2022/03/26 06:33:45;;;;;;;41.08;22.65;;;6.20;1.00;;;;;;7361779;19;20026;-62
2022/03/26 06:36:18;;;;;;;40.53;23.55;;;6.30;1.00;;;;;;7363768;19;20006;-62
2022/03/26 06:38:48;;;;;;;41.70;22.65;;;6.40;1.00;;;;;;7363377;19;20482;-60
2022/03/26 06:41:18;;;;;;;41.88;23.10;;;6.40;1.00;;;;;;7366951;19;20086;-60
2022/03/26 06:43:48;;;;;;;44.25;24.90;;;6.50;1.00;;;;;;7361838;19;20018;-62
2022/03/26 06:46:18;;;;;;;40.75;22.45;;;6.60;1.00;;;;;;7385104;19;20103;-61
2022/03/26 06:48:48;;;;;;;45.47;23.55;;;6.50;1.00;;;;;;7366402;19;20021;-61
2022/03/26 06:51:21;;;;;;;42.85;21.90;;;6.50;1.00;;;;;;7366689;19;20220;-61
2022/03/26 06:53:51;;;;;;;39.10;22.25;;;6.70;1.00;;;;;;7362198;19;20021;-61
2022/03/26 06:56:21;;;;;;;45.03;23.98;;;6.70;1.00;;;;;;7364313;19;20014;-61
2022/03/26 06:58:51;;;;;;;42.25;22.95;;;6.80;1.00;;;;;;7365495;19;20022;-61
2022/03/26 07:01:21;;;;;;;47.15;23.33;;;6.70;1.00;;;;;;7388290;19;20022;-60
2022/03/26 07:03:52;;;;;;;43.55;22.50;;;6.80;1.00;;;;;;7360644;19;20010;-62
2022/03/26 07:06:24;;;;;;;44.47;21.50;;;7.00;1.00;;;;;;7362684;19;20393;-62
2022/03/26 07:08:54;;;;;;;40.95;21.75;;;7.20;1.00;;;;;;7365942;19;20019;-62
2022/03/26 07:11:24;;;;;;;36.95;20.02;;;7.30;1.00;;;;;;7365253;19;20027;-61
2022/03/26 07:13:54;;;;;;;42.45;20.67;;;7.20;1.00;;;;;;7361192;19;20019;-61
2022/03/26 07:16:24;;;;;;;38.92;21.15;;;7.30;1.00;;;;;;7385692;19;20021;-61
2022/03/26 07:18:55;;;;;;;38.47;21.05;;;7.50;1.00;;;;;;7363677;19;20010;-61
2022/03/26 07:21:28;;;;;;;39.00;20.48;;;7.70;1.00;;;;;;7364716;19;20089;-61
2022/03/26 07:23:57;;;;;;;43.03;20.52;;;7.70;1.00;;;;;;7361412;19;20014;-62
2022/03/26 07:26:27;;;;;;;39.45;20.65;;;7.70;1.00;;;;;;7364302;19;20101;-61
2022/03/26 07:28:58;;;;;;;41.83;21.23;;;7.60;1.00;;;;;;7365293;19;20671;-63
2022/03/26 07:31:27;;;;;;;34.30;19.45;;;7.70;1.00;;;;;;7386973;19;20074;-62
2022/03/26 07:33:57;;;;;;;38.10;20.13;;;7.80;1.00;;;;;;7361008;19;20794;-61
2022/03/26 07:36:32;;;;;;;36.70;20.15;;;7.90;1.00;;;;;;7361318;19;20487;-62
2022/03/26 07:39:02;;;;;;;39.90;19.75;;;7.90;1.00;;;;;;7364152;19;20016;-60
2022/03/26 07:41:31;;;;;;;38.33;19.98;;;7.90;1.00;;;;;;7363658;19;20025;-62
2022/03/26 07:44:01;;;;;;;33.80;19.67;;;8.20;1.00;;;;;;7362433;19;20118;-62
2022/03/26 07:46:31;;;;;;;35.50;20.17;;;8.50;1.00;;;;;;7384336;19;20014;-61
2022/03/26 07:49:01;;;;;;;36.47;20.23;;;8.70;1.00;;;;;;7364545;19;20475;-62
2022/03/26 07:51:34;;;;;;;36.80;20.40;;;8.60;1.00;;;;;;7361751;19;20027;-62
2022/03/26 07:54:04;;;;;;;35.40;20.20;;;8.70;1.00;;;;;;7361366;19;20540;-61
2022/03/26 07:56:34;;;;;;;33.88;19.35;;;9.00;1.00;;;;;;7362319;19;20021;-62
2022/03/26 07:59:04;;;;;;;37.85;20.85;;;9.10;1.00;;;;;;7364267;19;20020;-61
2022/03/26 08:01:34;;;;;;;36.60;19.80;;;9.30;1.00;;;;;;7384878;19;20457;-61
2022/03/26 08:04:04;;;;;;;38.20;20.33;;;9.40;1.00;;;;;;7360343;19;20046;-62
2022/03/26 08:06:37;;;;;;;36.92;19.20;;;9.40;1.00;;;;;;7361173;19;20011;-61
2022/03/26 08:09:07;;;;;;;36.70;20.80;;;9.60;1.00;;;;;;7362972;19;20033;-62
2022/03/26 08:11:37;;;;;;;39.17;20.45;;;9.60;1.00;;;;;;7361037;19;20054;-61
2022/03/26 08:14:07;;;;;;;35.85;20.80;;;9.70;1.00;;;;;;7361845;19;20493;-62
2022/03/26 08:16:37;;;;;;;37.72;19.17;;;9.80;1.00;;;;;;7359640;19;20475;-62
2022/03/26 08:19:06;;;;;;;42.25;20.73;;;10.00;1.00;;;;;;7384297;19;20035;-62
2022/03/26 08:21:39;;;;;;;37.05;20.60;;;10.00;1.00;;;;;;7359670;19;20033;-62
2022/03/26 08:24:09;;;;;;;37.17;19.45;;;10.00;1.00;;;;;;7359645;19;20014;-61
2022/03/26 08:26:39;;;;;;;37.30;20.25;;;10.20;1.00;;;;;;7361147;19;20011;-62
2022/03/26 08:29:09;;;;;;;41.80;21.65;;;10.20;1.00;;;;;;7362747;19;20014;-62
2022/03/26 08:31:39;;;;;;;36.67;19.88;;;10.20;1.00;;;;;;7360483;19;20109;-63
2022/03/26 08:34:09;;;;;;;40.47;20.77;;;10.50;1.00;;;;;;7381105;19;20010;-62
2022/03/26 08:36:42;;;;;;;45.92;21.42;;;10.60;1.00;;;;;;7358764;19;20073;-61
2022/03/26 08:39:11;;;;;;;43.95;20.55;;;10.50;1.00;;;;;;7362554;19;20462;-62
2022/03/26 08:41:41;;;;;;;33.38;18.98;;;10.60;1.00;;;;;;7360863;19;20085;-62
2022/03/26 08:44:11;;;;;;;41.47;22.80;;;10.70;1.00;;;;;;7358647;19;20490;-61
2022/03/26 08:46:41;;;;;;;40.38;20.13;;;10.70;1.00;;;;;;7359904;19;20497;-62
2022/03/26 08:49:11;;;;;;;38.90;22.08;;;10.80;1.00;;;;;;7385000;19;20012;-62
2022/03/26 08:51:43;;;;;;;40.03;21.90;;;11.00;1.00;;;;;;7358523;19;20017;-63
2022/03/26 08:54:13;;;;;;;39.05;21.48;;;11.10;1.00;;;;;;7359916;19;20417;-63
2022/03/26 08:56:43;;;;;;;35.60;21.08;;;11.20;1.00;;;;;;7360160;19;20569;-63
2022/03/26 08:59:13;;;;;;;41.08;21.92;;;11.30;1.00;;;;;;7361321;19;20010;-62
2022/03/26 09:01:43;;;;;;;40.90;21.63;;;11.60;1.00;;;;;;7359511;19;20028;-62
2022/03/26 09:04:14;;;;;;;42.97;21.40;;;11.60;1.00;;;;;;7387436;19;20366;-62
2022/03/26 09:06:47;;;;;;;40.35;21.60;;;11.60;1.00;;;;;;7364579;19;20027;-62
2022/03/26 09:09:17;;;;;;;39.08;21.20;;;11.60;1.00;;;;;;7369570;19;20014;-62
2022/03/26 09:11:48;;;;;;;40.78;21.48;;;11.80;1.00;;;;;;7367501;19;20014;-61
2022/03/26 09:14:18;;;;;;;47.97;21.92;;;11.60;1.00;;;;;;7365614;19;20490;-62
2022/03/26 09:16:48;;;;;;;40.65;22.38;;;11.70;1.00;;;;;;7366184;19;20486;-62
2022/03/26 09:19:17;;;;;;;38.40;21.35;;;11.80;1.00;;;;;;7389741;19;20015;-63
2022/03/26 09:21:50;;;;;;;41.20;20.70;;;11.80;1.00;;;;;;7366378;19;20089;-63
2022/03/26 09:24:20;;;;;;;38.42;22.30;;;12.10;1.00;;;;;;7363521;19;20026;-61
2022/03/26 09:26:50;;;;;;;51.00;21.90;;;12.30;1.00;;;;;;7365979;19;20014;-61
2022/03/26 09:29:20;;;;;;;39.47;20.75;;;12.50;1.00;;;;;;7368417;19;20029;-62
2022/03/26 09:31:50;;;;;;;39.35;21.70;;;12.50;1.00;;;;;;7367029;19;20019;-62
2022/03/26 09:34:20;;;;;;;45.22;22.23;;;12.60;1.00;;;;;;7385628;19;20031;-61
2022/03/26 09:36:53;;;;;;;38.53;21.20;;;12.80;1.00;;;;;;7364390;19;20010;-61
2022/03/26 09:39:23;;;;;;;40.20;22.58;;;12.90;1.00;;;;;;7367449;19;20007;-62
2022/03/26 09:41:53;;;;;;;40.50;22.63;;;12.70;1.00;;;;;;7364358;19;20522;-62
2022/03/26 09:44:24;;;;;;;46.22;21.90;;;13.00;1.00;;;;;;7364558;19;20090;-62
2022/03/26 09:46:54;;;;;;;40.08;23.02;;;13.10;1.00;;;;;;7365079;19;20162;-61
2022/03/26 09:49:24;;;;;;;42.97;22.13;;;13.20;1.00;;;;;;7388669;19;20014;-61
2022/03/26 09:51:57;;;;;;;41.92;21.85;;;13.40;1.00;;;;;;7366007;19;20006;-63
2022/03/26 09:54:28;;;;;;;36.63;22.37;;;13.40;1.00;;;;;;7362732;19;20108;-62
2022/03/26 09:56:58;;;;;;;37.33;21.45;;;13.70;1.00;;;;;;7363291;19;20020;-62
2022/03/26 09:59:28;;;;;;;38.35;21.85;;;13.80;1.00;;;;;;7366242;19;20014;-61
2022/03/26 10:01:58;;;;;;;61.85;22.67;;;13.80;1.00;;;;;;7362805;19;20377;-62
2022/03/26 10:04:39;;;;;;;37.65;22.35;;;13.90;1.00;;;;;;7384918;19;20025;-61
2022/03/26 10:07:12;;;;;;;42.70;22.55;;;13.90;1.00;;;;;;7363922;19;20007;-63
2022/03/26 10:09:44;;;;;;;36.00;21.33;;;14.20;1.00;;;;;;7367481;19;20003;-63
2022/03/26 10:12:18;;;;;;;40.47;21.73;;;14.40;1.00;;;;;;7364077;19;20393;-62
2022/03/26 10:14:50;;;;;;;47.47;23.00;;;14.40;1.00;;;;;;7363520;19;20015;-65
2022/03/26 10:17:24;;;;;;;42.40;22.77;;;14.40;1.00;;;;;;7364418;19;20024;-62
2022/03/26 10:19:56;;;;;;;39.67;22.17;;;14.50;1.00;;;;;;7367589;19;20079;-62
2022/03/26 10:22:34;;;;;;;40.25;22.75;;;14.70;1.00;;;;;;7385093;19;20020;-62
2022/03/26 10:25:07;;;;;;;43.08;22.80;;;14.90;1.00;;;;;;7362739;19;20014;-62
2022/03/26 10:27:39;;;;;;;47.27;23.63;;;14.90;1.00;;;;;;7362469;19;20065;-63
2022/03/26 10:30:13;;;;;;;38.25;22.25;;;15.00;1.00;;;;;;7365973;19;20242;-63
2022/03/26 10:32:45;;;;;;;40.55;21.60;;;15.10;1.00;;;;;;7363311;19;20097;-62
2022/03/26 10:35:21;;;;;;;42.25;23.45;;;15.20;1.00;;;;;;7363186;19;20010;-62
2022/03/26 10:38:04;;;;;;;42.97;21.60;;;15.20;1.00;;;;;;7363295;19;20395;-62
2022/03/26 10:40:37;;;;;;;44.15;22.60;;;15.40;1.00;;;;;;7378177;19;20504;-62
2022/03/26 10:43:09;;;;;;;38.53;20.90;;;15.50;1.00;;;;;;7381769;19;20015;-63
2022/03/26 10:45:48;;;;;;;37.78;20.38;;;15.40;1.00;;;;;;7363618;19;20042;-61
2022/03/26 10:48:18;;;;;;;35.70;19.40;;;15.80;1.00;;;;;;7365814;19;20010;-61
2022/03/26 10:50:48;;;;;;;40.67;21.98;;;16.30;1.00;;;;;;7365088;19;20498;-62
2022/03/26 10:53:20;;;;;;;54.08;22.73;;;16.50;1.00;;;;;;7360534;19;20010;-62
2022/03/26 10:55:51;;;;;;;36.13;18.55;;;16.50;1.00;;;;;;7362430;19;20743;-62
2022/03/26 10:58:22;;;;;;;30.13;18.20;;;16.10;1.00;;;;;;7384443;19;20086;-61
2022/03/26 11:00:52;;;;;;;34.00;19.20;;;16.10;1.00;;;;;;7364245;19;20101;-62
2022/03/26 11:03:22;;;;;;;32.45;17.27;;;16.40;1.00;;;;;;7359326;19;20014;-61
2022/03/26 11:05:56;;;;;;;34.28;19.00;;;16.20;1.00;;;;;;7362092;19;20017;-63
2022/03/26 11:08:33;;;;;;;31.17;18.75;;;16.40;1.00;;;;;;7365855;19;20086;-62
2022/03/26 11:11:08;;;;;;;30.13;17.98;;;16.50;1.00;;;;;;7364760;19;20146;-63
2022/03/26 11:13:40;;;;;;;30.95;18.23;;;16.50;1.00;;;;;;7358929;19;20018;-63
2022/03/26 11:16:18;;;;;;;34.15;17.92;;;16.70;1.00;;;;;;7383616;19;20176;-63
2022/03/26 11:18:59;;;;;;;27.05;17.40;;;16.70;1.00;;;;;;7364227;19;20363;-62
2022/03/26 11:21:42;;;;;;;29.05;17.67;;;16.50;1.00;;;;;;7362804;19;20023;-62
2022/03/26 11:24:41;;;;;;;30.25;18.02;;;16.50;1.00;;;;;;7360099;19;20010;-61
2022/03/26 11:27:37;;;;;;;27.95;16.80;;;16.80;1.00;;;;;;7360810;19;20034;-62
2022/03/26 11:30:15;;;;;;;30.63;18.10;;;17.10;1.00;;;;;;7364211;19;20098;-61
2022/03/26 11:32:49;;;;;;;33.63;18.05;;;16.70;1.00;;;;;;7361598;19;20018;-62
2022/03/26 11:35:20;;;;;;;28.52;17.33;;;16.70;1.00;;;;;;7360100;19;20781;-63
2022/03/26 11:37:55;;;;;;;31.92;16.42;;;16.80;1.00;;;;;;7360905;19;20011;-62
2022/03/26 11:40:48;;;;;;;32.03;17.65;;;17.00;1.00;;;;;;7384121;19;20070;-63
2022/03/26 11:43:21;;;;;;;28.58;15.90;;;16.90;1.00;;;;;;7357691;19;20470;-63
2022/03/26 11:51:22;;;;;;;22.73;14.82;;;16.90;1.00;;;;;;7363701;19;20077;-63
2022/03/26 11:53:59;;;;;;;27.55;16.35;;;17.00;1.00;;;;;;7356496;19;20018;-64
2022/03/26 11:56:33;;;;;;;28.20;16.23;;;17.10;1.00;;;;;;7359512;19;20010;-62
2022/03/26 11:59:10;;;;;;;28.70;16.45;;;17.20;1.00;;;;;;7363432;19;20095;-63
2022/03/26 12:01:42;;;;;;;28.05;16.13;;;17.50;1.00;;;;;;7359562;19;20025;-64
2022/03/26 12:04:13;;;;;;;26.27;14.07;;;17.50;1.00;;;;;;7381071;19;20455;-62
2022/03/26 12:06:47;;;;;;;24.60;15.77;;;17.50;1.00;;;;;;7359004;19;20417;-62
2022/03/26 12:09:32;;;;;;;24.95;14.80;;;17.40;1.00;;;;;;7362358;19;20687;-63
2022/03/26 12:12:19;;;;;;;23.83;15.10;;;17.30;1.00;;;;;;7359447;19;20332;-62
2022/03/26 12:15:19;;;;;;;23.48;13.80;;;17.20;1.00;;;;;;7358683;19;20130;-63
2022/03/26 12:17:52;;;;;;;28.23;14.27;;;17.40;1.00;;;;;;7359339;19;20391;-63
2022/03/26 12:20:25;;;;;;;24.58;14.55;;;17.40;1.00;;;;;;7362251;19;20003;-64
2022/03/26 12:23:06;;;;;;;23.17;15.77;;;17.40;1.00;;;;;;7359440;19;20007;-63
2022/03/26 12:25:45;;;;;;;29.83;15.93;;;17.50;1.00;;;;;;7360135;19;20035;-64
2022/03/26 12:28:20;;;;;;;23.38;14.55;;;17.20;1.00;;;;;;7383560;19;20533;-62
2022/03/26 12:30:54;;;;;;;27.45;14.98;;;17.60;1.00;;;;;;7362236;19;20562;-62
2022/03/26 12:33:26;;;;;;;28.05;14.88;;;17.20;1.00;;;;;;7355628;19;20466;-63
2022/03/26 12:35:57;;;;;;;28.25;14.35;;;17.50;1.00;;;;;;7358843;19;20011;-61
2022/03/26 12:38:33;;;;;;;24.90;14.40;;;17.50;1.00;;;;;;7367305;19;20090;-62
2022/03/26 12:41:04;;;;;;;22.05;14.55;;;17.60;1.00;;;;;;7369087;19;20090;-63
2022/03/26 12:43:37;;;;;;;23.90;13.90;;;17.50;1.00;;;;;;7383685;19;20020;-65
2022/03/26 12:46:13;;;;;;;26.45;14.65;;;17.60;1.00;;;;;;7387605;19;20509;-63
2022/03/26 12:48:46;;;;;;;27.08;14.65;;;17.70;1.00;;;;;;7369292;19;20003;-64
2022/03/26 12:51:22;;;;;;;22.23;13.52;;;17.70;1.00;;;;;;7367513;19;20086;-63
2022/03/26 12:54:00;;;;;;;30.00;15.02;;;17.90;1.00;;;;;;7364784;19;20010;-63
2022/03/26 12:56:30;;;;;;;22.23;13.90;;;17.70;1.00;;;;;;7364776;19;20010;-63
2022/03/26 12:59:00;;;;;;;27.15;13.40;;;18.00;1.00;;;;;;7368358;19;20118;-64
2022/03/26 13:01:31;;;;;;;22.65;13.75;;;18.00;1.00;;;;;;7388714;19;20754;-62
2022/03/26 13:04:01;;;;;;;22.23;13.50;;;18.00;1.00;;;;;;7363363;19;20014;-62
2022/03/26 13:06:31;;;;;;;23.20;14.98;;;17.80;1.00;;;;;;7365026;19;20478;-63
2022/03/26 13:09:02;;;;;;;28.20;14.25;;;18.00;1.00;;;;;;7367748;19;20010;-62
2022/03/26 13:11:33;;;;;;;25.98;13.90;;;17.90;1.00;;;;;;7365629;19;20456;-63